sensor_id;sensor_type;location;lat;lon;timestamp;P1;durP1;ratioP1;P2;durP2;ratioP2
74612;SDS011;63119;51.788;8.824;2023-06-22T00:00:41;9.40;;;7.27;;
74612;SDS011;63119;51.788;8.824;2023-06-22T00:03:07;13.52;;;8.00;;
74612;SDS011;63119;51.788;8.824;2023-06-22T00:05:32;11.10;;;8.45;;
74612;SDS011;63119;51.788;8.824;2023-06-22T00:07:58;13.73;;;8.63;;
74612;SDS011;63119;51.788;8.824;2023-06-22T00:10:23;14.53;;;7.77;;
74612;SDS011;63119;51.788;8.824;2023-06-22T00:12:48;10.27;;;7.80;;
74612;SDS011;63119;51.788;8.824;2023-06-22T00:15:13;12.47;;;8.50;;
74612;SDS011;63119;51.788;8.824;2023-06-22T00:17:39;10.73;;;8.33;;
74612;SDS011;63119;51.788;8.824;2023-06-22T00:20:04;11.83;;;8.77;;
74612;SDS011;63119;51.788;8.824;2023-06-22T00:22:30;11.30;;;8.00;;
74612;SDS011;63119;51.788;8.824;2023-06-22T00:24:56;11.97;;;8.87;;
74612;SDS011;63119;51.788;8.824;2023-06-22T00:27:22;11.15;;;7.65;;
74612;SDS011;63119;51.788;8.824;2023-06-22T00:29:47;14.45;;;8.48;;
74612;SDS011;63119;51.788;8.824;2023-06-22T00:32:12;12.53;;;8.20;;
74612;SDS011;63119;51.788;8.824;2023-06-22T00:34:37;11.63;;;8.40;;
74612;SDS011;63119;51.788;8.824;2023-06-22T00:37:03;9.87;;;7.70;;
74612;SDS011;63119;51.788;8.824;2023-06-22T00:39:28;10.43;;;8.38;;
74612;SDS011;63119;51.788;8.824;2023-06-22T00:41:54;11.33;;;7.63;;
74612;SDS011;63119;51.788;8.824;2023-06-22T00:44:19;10.73;;;8.48;;
74612;SDS011;63119;51.788;8.824;2023-06-22T00:46:45;12.20;;;8.40;;
74612;SDS011;63119;51.788;8.824;2023-06-22T00:49:10;13.10;;;8.70;;
74612;SDS011;63119;51.788;8.824;2023-06-22T00:51:35;11.93;;;7.97;;
74612;SDS011;63119;51.788;8.824;2023-06-22T00:54:03;11.40;;;8.25;;
74612;SDS011;63119;51.788;8.824;2023-06-22T00:56:30;11.73;;;7.75;;
74612;SDS011;63119;51.788;8.824;2023-06-22T00:58:55;10.43;;;8.10;;
74612;SDS011;63119;51.788;8.824;2023-06-22T01:01:22;11.35;;;8.48;;
74612;SDS011;63119;51.788;8.824;2023-06-22T01:03:47;14.73;;;7.90;;
74612;SDS011;63119;51.788;8.824;2023-06-22T01:06:15;14.55;;;7.95;;
74612;SDS011;63119;51.788;8.824;2023-06-22T01:09:19;11.00;;;7.78;;
74612;SDS011;63119;51.788;8.824;2023-06-22T01:11:47;12.32;;;8.55;;
74612;SDS011;63119;51.788;8.824;2023-06-22T01:17:02;11.10;;;8.05;;
74612;SDS011;63119;51.788;8.824;2023-06-22T01:19:43;11.85;;;7.60;;
74612;SDS011;63119;51.788;8.824;2023-06-22T01:22:12;10.38;;;7.50;;
74612;SDS011;63119;51.788;8.824;2023-06-22T01:24:48;9.70;;;7.65;;
74612;SDS011;63119;51.788;8.824;2023-06-22T01:27:31;11.00;;;7.35;;
74612;SDS011;63119;51.788;8.824;2023-06-22T01:30:06;10.95;;;7.00;;
74612;SDS011;63119;51.788;8.824;2023-06-22T01:32:36;9.52;;;7.88;;
74612;SDS011;63119;51.788;8.824;2023-06-22T01:35:03;11.20;;;8.02;;
74612;SDS011;63119;51.788;8.824;2023-06-22T01:37:31;10.20;;;7.75;;
74612;SDS011;63119;51.788;8.824;2023-06-22T01:39:59;10.65;;;6.82;;
74612;SDS011;63119;51.788;8.824;2023-06-22T01:42:25;11.68;;;8.40;;
74612;SDS011;63119;51.788;8.824;2023-06-22T01:44:54;10.25;;;7.82;;
74612;SDS011;63119;51.788;8.824;2023-06-22T01:47:21;10.20;;;7.78;;
74612;SDS011;63119;51.788;8.824;2023-06-22T01:49:47;10.73;;;8.10;;
74612;SDS011;63119;51.788;8.824;2023-06-22T01:52:13;12.32;;;7.97;;
74612;SDS011;63119;51.788;8.824;2023-06-22T01:54:39;12.57;;;9.25;;
74612;SDS011;63119;51.788;8.824;2023-06-22T01:57:05;10.95;;;8.93;;
74612;SDS011;63119;51.788;8.824;2023-06-22T01:59:34;12.43;;;8.48;;
74612;SDS011;63119;51.788;8.824;2023-06-22T02:02:20;13.32;;;9.25;;
74612;SDS011;63119;51.788;8.824;2023-06-22T02:04:53;14.27;;;9.93;;
74612;SDS011;63119;51.788;8.824;2023-06-22T02:07:22;14.25;;;9.32;;
74612;SDS011;63119;51.788;8.824;2023-06-22T02:09:48;12.70;;;9.15;;
74612;SDS011;63119;51.788;8.824;2023-06-22T02:12:17;13.65;;;9.35;;
74612;SDS011;63119;51.788;8.824;2023-06-22T02:14:46;13.68;;;9.15;;
74612;SDS011;63119;51.788;8.824;2023-06-22T02:17:12;13.25;;;9.73;;
74612;SDS011;63119;51.788;8.824;2023-06-22T02:19:37;13.85;;;10.00;;
74612;SDS011;63119;51.788;8.824;2023-06-22T02:22:05;12.98;;;8.95;;
74612;SDS011;63119;51.788;8.824;2023-06-22T02:24:31;12.13;;;9.80;;
74612;SDS011;63119;51.788;8.824;2023-06-22T02:27:00;13.10;;;10.05;;
74612;SDS011;63119;51.788;8.824;2023-06-22T02:29:26;12.25;;;9.05;;
74612;SDS011;63119;51.788;8.824;2023-06-22T02:31:52;12.82;;;9.27;;
74612;SDS011;63119;51.788;8.824;2023-06-22T02:34:17;11.80;;;9.15;;
74612;SDS011;63119;51.788;8.824;2023-06-22T02:36:46;13.32;;;9.45;;
74612;SDS011;63119;51.788;8.824;2023-06-22T02:39:18;16.52;;;10.20;;
74612;SDS011;63119;51.788;8.824;2023-06-22T02:41:44;13.82;;;10.45;;
74612;SDS011;63119;51.788;8.824;2023-06-22T02:44:10;12.73;;;9.60;;
74612;SDS011;63119;51.788;8.824;2023-06-22T02:46:35;12.57;;;10.13;;
74612;SDS011;63119;51.788;8.824;2023-06-22T02:49:01;14.35;;;9.80;;
74612;SDS011;63119;51.788;8.824;2023-06-22T02:51:26;14.50;;;10.03;;
74612;SDS011;63119;51.788;8.824;2023-06-22T02:53:51;13.27;;;9.67;;
74612;SDS011;63119;51.788;8.824;2023-06-22T02:56:21;11.63;;;9.75;;
74612;SDS011;63119;51.788;8.824;2023-06-22T02:58:49;14.05;;;10.38;;
74612;SDS011;63119;51.788;8.824;2023-06-22T03:01:15;13.85;;;9.70;;
74612;SDS011;63119;51.788;8.824;2023-06-22T03:03:40;12.97;;;9.23;;
74612;SDS011;63119;51.788;8.824;2023-06-22T03:06:05;13.47;;;9.67;;
74612;SDS011;63119;51.788;8.824;2023-06-22T03:08:31;13.93;;;9.20;;
74612;SDS011;63119;51.788;8.824;2023-06-22T03:10:56;12.50;;;9.23;;
74612;SDS011;63119;51.788;8.824;2023-06-22T03:13:21;11.80;;;9.03;;
74612;SDS011;63119;51.788;8.824;2023-06-22T03:15:47;12.48;;;9.23;;
74612;SDS011;63119;51.788;8.824;2023-06-22T03:18:12;12.20;;;9.13;;
74612;SDS011;63119;51.788;8.824;2023-06-22T03:20:37;13.33;;;9.93;;
74612;SDS011;63119;51.788;8.824;2023-06-22T03:23:03;12.77;;;9.32;;
74612;SDS011;63119;51.788;8.824;2023-06-22T03:25:28;14.80;;;8.90;;
74612;SDS011;63119;51.788;8.824;2023-06-22T03:27:53;11.93;;;8.80;;
74612;SDS011;63119;51.788;8.824;2023-06-22T03:30:18;10.90;;;8.87;;
74612;SDS011;63119;51.788;8.824;2023-06-22T03:32:44;12.97;;;10.00;;
74612;SDS011;63119;51.788;8.824;2023-06-22T03:35:09;12.13;;;8.07;;
74612;SDS011;63119;51.788;8.824;2023-06-22T03:37:35;12.48;;;8.35;;
74612;SDS011;63119;51.788;8.824;2023-06-22T03:40:00;11.55;;;8.52;;
74612;SDS011;63119;51.788;8.824;2023-06-22T03:42:26;11.63;;;8.13;;
74612;SDS011;63119;51.788;8.824;2023-06-22T03:44:51;10.38;;;8.48;;
74612;SDS011;63119;51.788;8.824;2023-06-22T03:47:16;11.27;;;9.37;;
74612;SDS011;63119;51.788;8.824;2023-06-22T03:49:42;10.27;;;8.30;;
74612;SDS011;63119;51.788;8.824;2023-06-22T03:52:08;11.07;;;9.00;;
74612;SDS011;63119;51.788;8.824;2023-06-22T03:54:33;13.40;;;9.30;;
74612;SDS011;63119;51.788;8.824;2023-06-22T03:56:58;12.17;;;9.77;;
74612;SDS011;63119;51.788;8.824;2023-06-22T03:59:23;11.47;;;9.00;;
74612;SDS011;63119;51.788;8.824;2023-06-22T04:01:49;11.27;;;9.35;;
74612;SDS011;63119;51.788;8.824;2023-06-22T04:04:15;12.35;;;9.25;;
74612;SDS011;63119;51.788;8.824;2023-06-22T04:06:41;11.57;;;8.98;;
74612;SDS011;63119;51.788;8.824;2023-06-22T04:09:06;11.37;;;9.20;;
74612;SDS011;63119;51.788;8.824;2023-06-22T04:11:31;13.67;;;9.10;;
74612;SDS011;63119;51.788;8.824;2023-06-22T04:13:57;11.57;;;8.83;;
74612;SDS011;63119;51.788;8.824;2023-06-22T04:16:22;11.27;;;8.87;;
74612;SDS011;63119;51.788;8.824;2023-06-22T04:18:47;12.87;;;8.80;;
74612;SDS011;63119;51.788;8.824;2023-06-22T04:21:13;11.80;;;9.83;;
74612;SDS011;63119;51.788;8.824;2023-06-22T04:23:38;12.20;;;9.80;;
74612;SDS011;63119;51.788;8.824;2023-06-22T04:26:03;13.63;;;10.37;;
74612;SDS011;63119;51.788;8.824;2023-06-22T04:28:29;12.83;;;9.60;;
74612;SDS011;63119;51.788;8.824;2023-06-22T04:30:54;14.50;;;10.20;;
74612;SDS011;63119;51.788;8.824;2023-06-22T04:33:27;12.55;;;9.70;;
74612;SDS011;63119;51.788;8.824;2023-06-22T04:35:54;13.27;;;9.68;;
74612;SDS011;63119;51.788;8.824;2023-06-22T04:38:19;11.60;;;8.70;;
74612;SDS011;63119;51.788;8.824;2023-06-22T04:40:46;11.15;;;9.00;;
74612;SDS011;63119;51.788;8.824;2023-06-22T04:43:11;12.83;;;8.80;;
74612;SDS011;63119;51.788;8.824;2023-06-22T04:45:36;11.30;;;8.83;;
74612;SDS011;63119;51.788;8.824;2023-06-22T04:48:03;9.85;;;8.43;;
74612;SDS011;63119;51.788;8.824;2023-06-22T04:50:29;12.85;;;9.55;;
74612;SDS011;63119;51.788;8.824;2023-06-22T04:52:54;11.97;;;8.57;;
74612;SDS011;63119;51.788;8.824;2023-06-22T04:55:19;11.50;;;8.40;;
74612;SDS011;63119;51.788;8.824;2023-06-22T04:57:45;11.02;;;8.65;;
74612;SDS011;63119;51.788;8.824;2023-06-22T05:00:13;12.05;;;8.07;;
74612;SDS011;63119;51.788;8.824;2023-06-22T05:02:42;11.95;;;8.40;;
74612;SDS011;63119;51.788;8.824;2023-06-22T05:05:08;11.02;;;8.82;;
74612;SDS011;63119;51.788;8.824;2023-06-22T05:07:38;11.18;;;8.55;;
74612;SDS011;63119;51.788;8.824;2023-06-22T05:10:08;9.40;;;7.68;;
74612;SDS011;63119;51.788;8.824;2023-06-22T05:12:37;12.38;;;7.82;;
74612;SDS011;63119;51.788;8.824;2023-06-22T05:15:03;10.68;;;7.72;;
74612;SDS011;63119;51.788;8.824;2023-06-22T05:17:28;13.13;;;7.80;;
74612;SDS011;63119;51.788;8.824;2023-06-22T05:19:53;10.10;;;7.70;;
74612;SDS011;63119;51.788;8.824;2023-06-22T05:22:19;12.13;;;8.07;;
74612;SDS011;63119;51.788;8.824;2023-06-22T05:24:45;12.02;;;9.02;;
74612;SDS011;63119;51.788;8.824;2023-06-22T05:27:10;11.07;;;8.38;;
74612;SDS011;63119;51.788;8.824;2023-06-22T05:29:36;11.73;;;7.43;;
74612;SDS011;63119;51.788;8.824;2023-06-22T05:32:02;10.68;;;7.75;;
74612;SDS011;63119;51.788;8.824;2023-06-22T05:34:28;9.68;;;6.95;;
74612;SDS011;63119;51.788;8.824;2023-06-22T05:36:53;9.47;;;6.80;;
74612;SDS011;63119;51.788;8.824;2023-06-22T05:39:18;8.83;;;6.53;;
74612;SDS011;63119;51.788;8.824;2023-06-22T05:41:44;8.90;;;7.33;;
74612;SDS011;63119;51.788;8.824;2023-06-22T05:44:10;10.65;;;7.18;;
74612;SDS011;63119;51.788;8.824;2023-06-22T05:46:35;10.88;;;7.78;;
74612;SDS011;63119;51.788;8.824;2023-06-22T05:49:01;8.95;;;6.95;;
74612;SDS011;63119;51.788;8.824;2023-06-22T05:51:26;10.87;;;7.50;;
74612;SDS011;63119;51.788;8.824;2023-06-22T05:53:52;10.83;;;7.10;;
74612;SDS011;63119;51.788;8.824;2023-06-22T05:56:17;10.40;;;7.67;;
74612;SDS011;63119;51.788;8.824;2023-06-22T05:58:42;10.87;;;7.23;;
74612;SDS011;63119;51.788;8.824;2023-06-22T06:01:07;10.07;;;6.90;;
74612;SDS011;63119;51.788;8.824;2023-06-22T06:03:33;9.20;;;7.40;;
74612;SDS011;63119;51.788;8.824;2023-06-22T06:05:58;9.90;;;7.83;;
74612;SDS011;63119;51.788;8.824;2023-06-22T06:08:23;9.50;;;7.00;;
74612;SDS011;63119;51.788;8.824;2023-06-22T06:10:49;8.77;;;7.05;;
74612;SDS011;63119;51.788;8.824;2023-06-22T06:13:14;9.97;;;7.93;;
74612;SDS011;63119;51.788;8.824;2023-06-22T06:15:39;9.90;;;7.33;;
74612;SDS011;63119;51.788;8.824;2023-06-22T06:18:05;10.30;;;7.05;;
74612;SDS011;63119;51.788;8.824;2023-06-22T06:20:31;10.65;;;7.30;;
74612;SDS011;63119;51.788;8.824;2023-06-22T06:22:57;9.55;;;6.80;;
74612;SDS011;63119;51.788;8.824;2023-06-22T06:25:22;9.73;;;7.10;;
74612;SDS011;63119;51.788;8.824;2023-06-22T06:27:49;8.85;;;6.72;;
74612;SDS011;63119;51.788;8.824;2023-06-22T06:30:16;10.68;;;7.55;;
74612;SDS011;63119;51.788;8.824;2023-06-22T06:32:42;8.98;;;7.07;;
74612;SDS011;63119;51.788;8.824;2023-06-22T06:35:10;10.30;;;7.15;;
74612;SDS011;63119;51.788;8.824;2023-06-22T06:37:36;10.25;;;7.25;;
74612;SDS011;63119;51.788;8.824;2023-06-22T06:40:03;11.85;;;7.60;;
74612;SDS011;63119;51.788;8.824;2023-06-22T06:42:35;9.65;;;7.60;;
74612;SDS011;63119;51.788;8.824;2023-06-22T06:45:02;10.20;;;7.15;;
74612;SDS011;63119;51.788;8.824;2023-06-22T06:47:28;9.52;;;7.65;;
74612;SDS011;63119;51.788;8.824;2023-06-22T06:49:53;10.00;;;7.87;;
74612;SDS011;63119;51.788;8.824;2023-06-22T06:52:18;9.63;;;7.13;;
74612;SDS011;63119;51.788;8.824;2023-06-22T06:54:44;14.07;;;8.85;;
74612;SDS011;63119;51.788;8.824;2023-06-22T06:57:10;10.60;;;7.87;;
74612;SDS011;63119;51.788;8.824;2023-06-22T06:59:35;11.52;;;8.57;;
74612;SDS011;63119;51.788;8.824;2023-06-22T07:02:01;11.73;;;8.73;;
74612;SDS011;63119;51.788;8.824;2023-06-22T07:04:26;12.30;;;8.27;;
74612;SDS011;63119;51.788;8.824;2023-06-22T07:06:52;12.27;;;9.10;;
74612;SDS011;63119;51.788;8.824;2023-06-22T07:09:17;10.77;;;7.90;;
74612;SDS011;63119;51.788;8.824;2023-06-22T07:11:43;12.35;;;9.00;;
74612;SDS011;63119;51.788;8.824;2023-06-22T07:14:08;12.87;;;7.93;;
74612;SDS011;63119;51.788;8.824;2023-06-22T07:16:34;12.00;;;8.53;;
74612;SDS011;63119;51.788;8.824;2023-06-22T07:18:59;10.13;;;8.20;;
74612;SDS011;63119;51.788;8.824;2023-06-22T07:21:25;12.57;;;8.35;;
74612;SDS011;63119;51.788;8.824;2023-06-22T07:23:50;12.30;;;8.07;;
74612;SDS011;63119;51.788;8.824;2023-06-22T07:26:15;13.83;;;8.57;;
74612;SDS011;63119;51.788;8.824;2023-06-22T07:28:41;10.07;;;8.05;;
74612;SDS011;63119;51.788;8.824;2023-06-22T07:31:07;11.83;;;8.13;;
74612;SDS011;63119;51.788;8.824;2023-06-22T07:33:32;10.87;;;8.17;;
74612;SDS011;63119;51.788;8.824;2023-06-22T07:35:57;10.60;;;8.38;;
74612;SDS011;63119;51.788;8.824;2023-06-22T07:38:23;13.70;;;7.70;;
74612;SDS011;63119;51.788;8.824;2023-06-22T07:40:48;12.50;;;8.93;;
74612;SDS011;63119;51.788;8.824;2023-06-22T07:43:13;11.60;;;8.50;;
74612;SDS011;63119;51.788;8.824;2023-06-22T07:45:39;19.20;;;8.63;;
74612;SDS011;63119;51.788;8.824;2023-06-22T07:48:05;12.68;;;8.60;;
74612;SDS011;63119;51.788;8.824;2023-06-22T07:50:31;11.18;;;7.60;;
74612;SDS011;63119;51.788;8.824;2023-06-22T07:52:56;11.63;;;7.67;;
74612;SDS011;63119;51.788;8.824;2023-06-22T07:55:21;10.87;;;8.17;;
74612;SDS011;63119;51.788;8.824;2023-06-22T07:57:48;12.37;;;9.40;;
74612;SDS011;63119;51.788;8.824;2023-06-22T08:00:16;13.80;;;9.85;;
74612;SDS011;63119;51.788;8.824;2023-06-22T08:02:43;12.43;;;9.45;;
74612;SDS011;63119;51.788;8.824;2023-06-22T08:05:10;12.13;;;9.82;;
74612;SDS011;63119;51.788;8.824;2023-06-22T08:07:36;11.70;;;8.80;;
74612;SDS011;63119;51.788;8.824;2023-06-22T08:10:02;11.77;;;9.15;;
74612;SDS011;63119;51.788;8.824;2023-06-22T08:12:28;11.38;;;8.23;;
74612;SDS011;63119;51.788;8.824;2023-06-22T08:14:54;13.50;;;9.10;;
74612;SDS011;63119;51.788;8.824;2023-06-22T08:17:19;11.27;;;8.20;;
74612;SDS011;63119;51.788;8.824;2023-06-22T08:19:44;13.60;;;8.83;;
74612;SDS011;63119;51.788;8.824;2023-06-22T08:22:09;13.43;;;9.30;;
74612;SDS011;63119;51.788;8.824;2023-06-22T08:24:34;11.30;;;9.53;;
74612;SDS011;63119;51.788;8.824;2023-06-22T08:27:00;11.80;;;9.27;;
74612;SDS011;63119;51.788;8.824;2023-06-22T08:29:25;12.40;;;9.52;;
74612;SDS011;63119;51.788;8.824;2023-06-22T08:31:50;13.47;;;8.73;;
74612;SDS011;63119;51.788;8.824;2023-06-22T08:34:15;11.23;;;8.40;;
74612;SDS011;63119;51.788;8.824;2023-06-22T08:36:42;12.70;;;9.43;;
74612;SDS011;63119;51.788;8.824;2023-06-22T08:39:08;11.07;;;8.37;;
74612;SDS011;63119;51.788;8.824;2023-06-22T08:41:33;11.53;;;8.93;;
74612;SDS011;63119;51.788;8.824;2023-06-22T08:43:59;10.13;;;8.00;;
74612;SDS011;63119;51.788;8.824;2023-06-22T08:46:24;13.10;;;8.27;;
74612;SDS011;63119;51.788;8.824;2023-06-22T08:48:54;10.68;;;8.00;;
74612;SDS011;63119;51.788;8.824;2023-06-22T08:51:20;10.67;;;8.00;;
74612;SDS011;63119;51.788;8.824;2023-06-22T08:53:45;11.53;;;8.17;;
74612;SDS011;63119;51.788;8.824;2023-06-22T08:56:10;10.73;;;8.23;;
74612;SDS011;63119;51.788;8.824;2023-06-22T08:58:36;10.45;;;8.20;;
74612;SDS011;63119;51.788;8.824;2023-06-22T09:01:01;10.73;;;7.90;;
74612;SDS011;63119;51.788;8.824;2023-06-22T09:03:27;11.48;;;8.05;;
74612;SDS011;63119;51.788;8.824;2023-06-22T09:05:52;10.53;;;7.83;;
74612;SDS011;63119;51.788;8.824;2023-06-22T09:08:17;9.53;;;7.47;;
74612;SDS011;63119;51.788;8.824;2023-06-22T09:10:42;10.90;;;7.93;;
74612;SDS011;63119;51.788;8.824;2023-06-22T09:13:08;9.50;;;7.20;;
74612;SDS011;63119;51.788;8.824;2023-06-22T09:15:33;8.17;;;6.30;;
74612;SDS011;63119;51.788;8.824;2023-06-22T09:17:59;8.80;;;6.30;;
74612;SDS011;63119;51.788;8.824;2023-06-22T09:20:24;9.30;;;6.10;;
74612;SDS011;63119;51.788;8.824;2023-06-22T09:22:50;8.37;;;6.60;;
74612;SDS011;63119;51.788;8.824;2023-06-22T09:25:15;7.67;;;6.37;;
74612;SDS011;63119;51.788;8.824;2023-06-22T09:27:40;8.55;;;6.50;;
74612;SDS011;63119;51.788;8.824;2023-06-22T09:30:06;9.10;;;7.30;;
74612;SDS011;63119;51.788;8.824;2023-06-22T09:32:32;8.13;;;6.72;;
74612;SDS011;63119;51.788;8.824;2023-06-22T09:34:57;10.47;;;7.60;;
74612;SDS011;63119;51.788;8.824;2023-06-22T09:37:22;9.13;;;6.80;;
74612;SDS011;63119;51.788;8.824;2023-06-22T09:39:47;8.67;;;6.60;;
74612;SDS011;63119;51.788;8.824;2023-06-22T09:42:13;7.97;;;6.73;;
74612;SDS011;63119;51.788;8.824;2023-06-22T09:44:38;10.50;;;6.57;;
74612;SDS011;63119;51.788;8.824;2023-06-22T09:47:04;9.70;;;6.97;;
74612;SDS011;63119;51.788;8.824;2023-06-22T09:49:29;8.85;;;6.55;;
74612;SDS011;63119;51.788;8.824;2023-06-22T09:51:55;9.13;;;6.50;;
74612;SDS011;63119;51.788;8.824;2023-06-22T09:54:20;9.33;;;6.53;;
74612;SDS011;63119;51.788;8.824;2023-06-22T09:56:45;10.37;;;7.23;;
74612;SDS011;63119;51.788;8.824;2023-06-22T09:59:10;8.43;;;6.60;;
74612;SDS011;63119;51.788;8.824;2023-06-22T10:01:36;8.80;;;7.07;;
74612;SDS011;63119;51.788;8.824;2023-06-22T10:04:02;9.17;;;6.97;;
74612;SDS011;63119;51.788;8.824;2023-06-22T10:06:27;9.88;;;6.80;;
74612;SDS011;63119;51.788;8.824;2023-06-22T10:08:52;9.10;;;7.93;;
74612;SDS011;63119;51.788;8.824;2023-06-22T10:11:18;9.88;;;7.47;;
74612;SDS011;63119;51.788;8.824;2023-06-22T10:13:43;9.97;;;7.83;;
74612;SDS011;63119;51.788;8.824;2023-06-22T10:16:08;11.87;;;9.60;;
74612;SDS011;63119;51.788;8.824;2023-06-22T10:18:34;12.33;;;8.03;;
74612;SDS011;63119;51.788;8.824;2023-06-22T10:20:59;11.13;;;8.27;;
74612;SDS011;63119;51.788;8.824;2023-06-22T10:23:24;9.57;;;7.57;;
74612;SDS011;63119;51.788;8.824;2023-06-22T10:25:50;8.37;;;6.40;;
74612;SDS011;63119;51.788;8.824;2023-06-22T10:28:15;7.97;;;6.17;;
74612;SDS011;63119;51.788;8.824;2023-06-22T10:30:41;8.70;;;7.00;;
74612;SDS011;63119;51.788;8.824;2023-06-22T10:33:07;10.35;;;6.78;;
74612;SDS011;63119;51.788;8.824;2023-06-22T10:35:36;9.80;;;6.55;;
74612;SDS011;63119;51.788;8.824;2023-06-22T10:38:04;7.63;;;6.22;;
74612;SDS011;63119;51.788;8.824;2023-06-22T10:40:30;10.15;;;6.65;;
74612;SDS011;63119;51.788;8.824;2023-06-22T10:42:56;9.30;;;6.78;;
74612;SDS011;63119;51.788;8.824;2023-06-22T10:45:21;8.82;;;6.53;;
74612;SDS011;63119;51.788;8.824;2023-06-22T10:47:46;7.28;;;6.03;;
74612;SDS011;63119;51.788;8.824;2023-06-22T10:50:12;8.80;;;6.40;;
74612;SDS011;63119;51.788;8.824;2023-06-22T10:52:37;7.97;;;6.97;;
74612;SDS011;63119;51.788;8.824;2023-06-22T10:55:02;8.93;;;7.68;;
74612;SDS011;63119;51.788;8.824;2023-06-22T10:57:28;11.02;;;7.45;;
74612;SDS011;63119;51.788;8.824;2023-06-22T10:59:54;9.53;;;6.70;;
74612;SDS011;63119;51.788;8.824;2023-06-22T11:02:19;8.03;;;7.00;;
74612;SDS011;63119;51.788;8.824;2023-06-22T11:04:44;9.67;;;7.17;;
74612;SDS011;63119;51.788;8.824;2023-06-22T11:07:11;8.55;;;6.45;;
74612;SDS011;63119;51.788;8.824;2023-06-22T11:09:36;8.60;;;6.95;;
74612;SDS011;63119;51.788;8.824;2023-06-22T11:12:03;9.48;;;7.75;;
74612;SDS011;63119;51.788;8.824;2023-06-22T11:14:29;11.73;;;8.95;;
74612;SDS011;63119;51.788;8.824;2023-06-22T11:16:54;10.13;;;8.27;;
74612;SDS011;63119;51.788;8.824;2023-06-22T11:19:19;9.27;;;7.90;;
74612;SDS011;63119;51.788;8.824;2023-06-22T11:21:45;11.87;;;8.10;;
74612;SDS011;63119;51.788;8.824;2023-06-22T11:24:10;8.67;;;7.10;;
74612;SDS011;63119;51.788;8.824;2023-06-22T11:26:35;8.05;;;6.72;;
74612;SDS011;63119;51.788;8.824;2023-06-22T11:29:01;10.48;;;6.47;;
74612;SDS011;63119;51.788;8.824;2023-06-22T11:31:30;9.68;;;7.30;;
74612;SDS011;63119;51.788;8.824;2023-06-22T11:33:55;9.23;;;6.75;;
74612;SDS011;63119;51.788;8.824;2023-06-22T11:36:20;7.57;;;6.77;;
74612;SDS011;63119;51.788;8.824;2023-06-22T11:38:46;7.93;;;6.37;;
74612;SDS011;63119;51.788;8.824;2023-06-22T11:41:11;7.83;;;6.33;;
74612;SDS011;63119;51.788;8.824;2023-06-22T11:43:36;9.73;;;6.93;;
74612;SDS011;63119;51.788;8.824;2023-06-22T11:46:05;8.07;;;5.80;;
74612;SDS011;63119;51.788;8.824;2023-06-22T11:48:30;7.53;;;6.25;;
74612;SDS011;63119;51.788;8.824;2023-06-22T11:50:55;9.20;;;6.40;;
74612;SDS011;63119;51.788;8.824;2023-06-22T11:53:21;10.85;;;7.57;;
74612;SDS011;63119;51.788;8.824;2023-06-22T11:55:49;9.20;;;7.28;;
74612;SDS011;63119;51.788;8.824;2023-06-22T11:58:14;8.57;;;6.82;;
74612;SDS011;63119;51.788;8.824;2023-06-22T12:00:39;7.53;;;5.93;;
74612;SDS011;63119;51.788;8.824;2023-06-22T12:03:05;8.43;;;5.70;;
74612;SDS011;63119;51.788;8.824;2023-06-22T12:05:30;7.77;;;5.73;;
74612;SDS011;63119;51.788;8.824;2023-06-22T12:07:55;7.93;;;6.00;;
74612;SDS011;63119;51.788;8.824;2023-06-22T12:10:21;10.73;;;6.45;;
74612;SDS011;63119;51.788;8.824;2023-06-22T12:12:47;10.00;;;7.05;;
74612;SDS011;63119;51.788;8.824;2023-06-22T12:15:13;9.32;;;6.60;;
74612;SDS011;63119;51.788;8.824;2023-06-22T12:17:38;7.45;;;5.80;;
74612;SDS011;63119;51.788;8.824;2023-06-22T12:20:03;8.03;;;6.27;;
74612;SDS011;63119;51.788;8.824;2023-06-22T12:22:31;8.25;;;6.53;;
74612;SDS011;63119;51.788;8.824;2023-06-22T12:24:57;8.43;;;7.00;;
74612;SDS011;63119;51.788;8.824;2023-06-22T12:27:22;8.13;;;6.40;;
74612;SDS011;63119;51.788;8.824;2023-06-22T12:29:47;10.97;;;8.03;;
74612;SDS011;63119;51.788;8.824;2023-06-22T12:32:13;9.63;;;7.63;;
74612;SDS011;63119;51.788;8.824;2023-06-22T12:34:39;9.68;;;7.97;;
74612;SDS011;63119;51.788;8.824;2023-06-22T12:37:04;12.13;;;7.85;;
74612;SDS011;63119;51.788;8.824;2023-06-22T12:39:31;10.48;;;8.10;;
74612;SDS011;63119;51.788;8.824;2023-06-22T12:41:56;8.68;;;7.45;;
74612;SDS011;63119;51.788;8.824;2023-06-22T12:44:21;10.17;;;8.20;;
74612;SDS011;63119;51.788;8.824;2023-06-22T12:46:47;10.87;;;7.33;;
74612;SDS011;63119;51.788;8.824;2023-06-22T12:49:12;10.03;;;7.47;;
74612;SDS011;63119;51.788;8.824;2023-06-22T12:51:41;11.30;;;9.07;;
74612;SDS011;63119;51.788;8.824;2023-06-22T12:54:07;14.68;;;9.30;;
74612;SDS011;63119;51.788;8.824;2023-06-22T12:56:33;13.60;;;9.77;;
74612;SDS011;63119;51.788;8.824;2023-06-22T12:58:58;13.68;;;9.15;;
74612;SDS011;63119;51.788;8.824;2023-06-22T13:01:26;12.77;;;8.93;;
74612;SDS011;63119;51.788;8.824;2023-06-22T13:03:52;13.15;;;9.02;;
74612;SDS011;63119;51.788;8.824;2023-06-22T13:06:17;17.17;;;9.57;;
74612;SDS011;63119;51.788;8.824;2023-06-22T13:08:42;15.03;;;10.57;;
74612;SDS011;63119;51.788;8.824;2023-06-22T13:11:08;22.02;;;10.68;;
74612;SDS011;63119;51.788;8.824;2023-06-22T13:13:33;13.43;;;10.60;;
74612;SDS011;63119;51.788;8.824;2023-06-22T13:15:59;13.32;;;9.55;;
74612;SDS011;63119;51.788;8.824;2023-06-22T13:18:24;14.37;;;9.67;;
74612;SDS011;63119;51.788;8.824;2023-06-22T13:20:49;12.33;;;10.13;;
74612;SDS011;63119;51.788;8.824;2023-06-22T13:23:14;13.70;;;9.60;;
74612;SDS011;63119;51.788;8.824;2023-06-22T13:25:40;14.00;;;10.57;;
74612;SDS011;63119;51.788;8.824;2023-06-22T13:28:05;16.00;;;10.73;;
74612;SDS011;63119;51.788;8.824;2023-06-22T13:30:30;19.57;;;11.53;;
74612;SDS011;63119;51.788;8.824;2023-06-22T13:32:56;14.55;;;11.07;;
74612;SDS011;63119;51.788;8.824;2023-06-22T13:35:22;15.03;;;11.37;;
74612;SDS011;63119;51.788;8.824;2023-06-22T13:37:47;15.50;;;10.83;;
74612;SDS011;63119;51.788;8.824;2023-06-22T13:40:12;16.87;;;11.00;;
74612;SDS011;63119;51.788;8.824;2023-06-22T13:42:37;15.30;;;11.20;;
74612;SDS011;63119;51.788;8.824;2023-06-22T13:45:03;14.82;;;11.10;;
74612;SDS011;63119;51.788;8.824;2023-06-22T13:47:30;20.08;;;12.48;;
74612;SDS011;63119;51.788;8.824;2023-06-22T13:49:55;18.25;;;12.20;;
74612;SDS011;63119;51.788;8.824;2023-06-22T13:52:23;18.02;;;12.75;;
74612;SDS011;63119;51.788;8.824;2023-06-22T13:54:48;16.80;;;12.40;;
74612;SDS011;63119;51.788;8.824;2023-06-22T13:57:14;19.37;;;13.17;;
74612;SDS011;63119;51.788;8.824;2023-06-22T13:59:39;20.13;;;13.17;;
74612;SDS011;63119;51.788;8.824;2023-06-22T14:02:04;20.47;;;13.60;;
74612;SDS011;63119;51.788;8.824;2023-06-22T14:04:30;21.33;;;14.15;;
74612;SDS011;63119;51.788;8.824;2023-06-22T14:06:55;19.10;;;13.00;;
74612;SDS011;63119;51.788;8.824;2023-06-22T14:09:21;17.90;;;12.73;;
74612;SDS011;63119;51.788;8.824;2023-06-22T14:11:46;19.25;;;12.40;;
74612;SDS011;63119;51.788;8.824;2023-06-22T14:14:11;19.67;;;13.43;;
74612;SDS011;63119;51.788;8.824;2023-06-22T14:16:37;18.27;;;13.00;;
74612;SDS011;63119;51.788;8.824;2023-06-22T14:19:02;22.67;;;12.33;;
74612;SDS011;63119;51.788;8.824;2023-06-22T14:21:27;18.93;;;11.93;;
74612;SDS011;63119;51.788;8.824;2023-06-22T14:23:52;20.10;;;12.33;;
74612;SDS011;63119;51.788;8.824;2023-06-22T14:26:18;19.27;;;12.47;;
74612;SDS011;63119;51.788;8.824;2023-06-22T14:28:44;21.35;;;13.38;;
74612;SDS011;63119;51.788;8.824;2023-06-22T14:31:16;16.20;;;11.90;;